Time;durP1;ratioP1;P1;durP2;ratioP2;P2;SDS_P1;SDS_P2;PMS_P1;PMS_P2;Temp;Humidity;BMP_temperature;BMP_pressure;BME280_temperature;BME280_humidity;BME280_pressure;Samples;Min_cycle;Max_cycle;Signal;HPM_P1;HPM_P2
2024/02/21 05:30:59;;;;;;;0.10;0.10;;;10.20;91.50;;;;;;6151953;23;20111;-85
2024/02/21 05:33:25;;;;;;;0.10;0.10;;;10.10;91.70;;;;;;6156098;23;20002;-84
2024/02/21 05:35:51;;;;;;;0.10;0.10;;;10.10;91.60;;;;;;6133715;23;20009;-84
2024/02/21 05:38:17;;;;;;;0.10;0.10;;;10.20;91.60;;;;;;6160123;23;20017;-84
2024/02/21 05:40:44;;;;;;;0.10;0.10;;;10.10;91.60;;;;;;6159696;23;20259;-79
2024/02/21 05:43:10;;;;;;;0.10;0.10;;;10.10;91.50;;;;;;6160179;23;20001;-85
2024/02/21 05:45:36;;;;;;;0.10;0.10;;;10.10;91.70;;;;;;6159835;23;20008;-88
2024/02/21 05:48:06;;;;;;;0.10;0.10;;;10.20;91.50;;;;;;6159976;23;20344;-91
2024/02/21 05:50:32;;;;;;;0.10;0.10;;;10.20;91.50;;;;;;6160253;23;20061;-92
2024/02/21 05:52:58;;;;;;;0.10;0.10;;;10.20;91.20;;;;;;6133785;23;20012;-90
2024/02/21 05:55:23;;;;;;;0.10;0.10;;;10.10;91.30;;;;;;6159603;23;20009;-86
2024/02/21 05:57:49;;;;;;;0.10;0.10;;;10.20;91.50;;;;;;6160083;23;20103;-91
2024/02/21 06:00:15;;;;;;;0.10;0.10;;;10.10;91.40;;;;;;6133705;23;20001;-87
2024/02/21 06:02:41;;;;;;;0.10;0.10;;;10.10;91.30;;;;;;6159520;23;20756;-85
2024/02/21 06:05:08;;;;;;;0.10;0.10;;;10.10;91.30;;;;;;6160430;23;20033;-81
2024/02/21 06:07:34;;;;;;;0.10;0.10;;;10.10;91.30;;;;;;6134115;23;20014;-82
2024/02/21 06:10:04;;;;;;;0.10;0.10;;;10.20;91.30;;;;;;6134288;23;20010;-79
2024/02/21 06:12:29;;;;;;;0.10;0.10;;;10.20;91.30;;;;;;6159758;23;20735;-79
2024/02/21 06:14:55;;;;;;;0.10;0.10;;;10.20;91.20;;;;;;6160075;23;20076;-77
2024/02/21 06:17:20;;;;;;;0.10;0.10;;;10.10;91.30;;;;;;6159526;23;20093;-76
2024/02/21 06:19:46;;;;;;;0.10;0.10;;;10.20;91.40;;;;;;6159369;23;20036;-82
2024/02/21 06:22:12;;;;;;;0.10;0.10;;;10.10;91.30;;;;;;6159275;23;19993;-84
2024/02/21 06:24:38;;;;;;;0.10;0.10;;;10.20;91.30;;;;;;6131769;23;20084;-82
2024/02/21 06:27:05;;;;;;;0.10;0.10;;;10.20;91.40;;;;;;6133295;23;20010;-79
2024/02/21 06:29:32;;;;;;;0.10;0.10;;;10.20;91.30;;;;;;6159496;23;20005;-83
2024/02/21 06:31:58;;;;;;;0.10;0.10;;;10.20;91.10;;;;;;6159783;23;20088;-83
2024/02/21 06:34:24;;;;;;;0.10;0.10;;;10.20;91.20;;;;;;6133722;23;20006;-81
2024/02/21 06:36:50;;;;;;;0.10;0.10;;;10.20;91.30;;;;;;6133386;23;20012;-81
2024/02/21 06:39:15;;;;;;;0.10;0.10;;;10.20;91.20;;;;;;6159384;23;20419;-80
2024/02/21 06:41:41;;;;;;;0.10;0.10;;;10.20;91.30;;;;;;6134138;23;20027;-80
2024/02/21 06:44:07;;;;;;;0.10;0.10;;;10.30;91.20;;;;;;6158773;23;20009;-80
2024/02/21 06:46:33;;;;;;;0.10;0.10;;;10.30;91.20;;;;;;6160005;23;19998;-81
2024/02/21 06:49:00;;;;;;;0.03;0.03;;;10.30;91.10;;;;;;6159332;23;20445;-82
2024/02/21 06:51:26;;;;;;;0.10;0.10;;;10.30;91.20;;;;;;6160157;23;20061;-82
2024/02/21 06:53:52;;;;;;;0.10;0.10;;;10.30;91.10;;;;;;6160341;23;20497;-82
2024/02/21 06:56:18;;;;;;;0.10;0.10;;;10.30;91.20;;;;;;6134196;23;20012;-82
2024/02/21 06:58:44;;;;;;;0.10;0.10;;;10.30;91.00;;;;;;6160477;23;20445;-82
2024/02/21 07:01:10;;;;;;;0.10;0.10;;;10.30;90.90;;;;;;6160334;23;20001;-82
2024/02/21 07:03:36;;;;;;;0.10;0.10;;;10.40;91.00;;;;;;6159536;23;20009;-82
2024/02/21 07:06:02;;;;;;;0.10;0.10;;;10.30;91.00;;;;;;6159639;23;20001;-82
2024/02/21 07:08:28;;;;;;;0.10;0.10;;;10.30;91.10;;;;;;6160048;23;20002;-82
2024/02/21 07:10:53;;;;;;;0.10;0.10;;;10.30;91.20;;;;;;6160259;23;20008;-82
2024/02/21 07:13:20;;;;;;;0.10;0.10;;;10.30;91.10;;;;;;6160008;23;20005;-82
2024/02/21 07:15:46;;;;;;;0.10;0.10;;;10.40;91.20;;;;;;6160006;23;20005;-81
2024/02/21 07:18:11;;;;;;;0.10;0.10;;;10.40;91.10;;;;;;6158908;23;20057;-80
2024/02/21 07:20:37;;;;;;;0.10;0.10;;;10.40;91.20;;;;;;6159757;23;20310;-81
2024/02/21 07:23:04;;;;;;;0.10;0.10;;;10.40;91.00;;;;;;6159138;23;20144;-80
2024/02/21 07:25:31;;;;;;;0.10;0.10;;;10.40;91.10;;;;;;6133785;23;20010;-81
2024/02/21 07:27:56;;;;;;;0.10;0.10;;;10.40;91.30;;;;;;6159429;23;20453;-80
2024/02/21 07:30:22;;;;;;;0.10;0.10;;;10.40;91.20;;;;;;6159318;23;20010;-80
2024/02/21 07:32:51;;;;;;;0.10;0.10;;;10.40;91.30;;;;;;6159565;23;20076;-80
2024/02/21 07:35:20;;;;;;;0.10;0.10;;;10.50;91.10;;;;;;6159452;23;20016;-80
2024/02/21 07:37:46;;;;;;;0.10;0.10;;;10.50;91.10;;;;;;6132712;23;20013;-81
2024/02/21 07:40:16;;;;;;;0.10;0.10;;;10.50;91.10;;;;;;6159514;23;20338;-81
2024/02/21 07:42:42;;;;;;;0.10;0.10;;;10.50;91.00;;;;;;6159171;23;20006;-80
2024/02/21 07:45:08;;;;;;;0.10;0.10;;;10.50;91.10;;;;;;6159446;23;19997;-80
2024/02/21 07:47:34;;;;;;;0.10;0.10;;;10.50;91.20;;;;;;6159596;23;20377;-81
2024/02/21 07:50:02;;;;;;;0.10;0.10;;;10.50;91.20;;;;;;6158875;23;20009;-81
2024/02/21 07:52:28;;;;;;;0.10;0.10;;;10.60;91.10;;;;;;6159186;23;20001;-81
2024/02/21 07:54:53;;;;;;;0.10;0.10;;;10.70;91.10;;;;;;6133379;23;20005;-81
2024/02/21 07:57:19;;;;;;;0.10;0.10;;;10.60;91.10;;;;;;6159077;23;20056;-81
2024/02/21 07:59:47;;;;;;;0.10;0.10;;;10.60;91.20;;;;;;6159495;23;20407;-81
2024/02/21 08:02:15;;;;;;;0.10;0.10;;;10.60;91.20;;;;;;6133350;23;20002;-81
2024/02/21 08:04:41;;;;;;;0.10;0.10;;;10.60;91.10;;;;;;6158993;23;20004;-81
2024/02/21 08:07:07;;;;;;;0.10;0.10;;;10.70;91.10;;;;;;6159916;23;20465;-81
2024/02/21 08:09:32;;;;;;;0.10;0.10;;;10.70;91.10;;;;;;6158962;23;20001;-81
2024/02/21 08:11:58;;;;;;;0.10;0.10;;;10.70;91.20;;;;;;6159183;23;20001;-81
2024/02/21 08:14:24;;;;;;;0.10;0.10;;;10.70;91.30;;;;;;6159410;23;20052;-81
2024/02/21 08:16:53;;;;;;;0.10;0.10;;;10.70;91.40;;;;;;6159707;23;20395;-81
2024/02/21 08:19:19;;;;;;;0.10;0.10;;;10.60;91.50;;;;;;6158928;23;20012;-81
2024/02/21 08:21:46;;;;;;;0.10;0.10;;;10.70;91.60;;;;;;6159419;23;20002;-80
2024/02/21 08:24:15;;;;;;;0.10;0.10;;;10.70;91.40;;;;;;6159162;23;20025;-81
2024/02/21 08:26:41;;;;;;;0.10;0.10;;;10.70;91.40;;;;;;6159162;23;20002;-82
2024/02/21 08:29:07;;;;;;;0.10;0.10;;;10.70;91.50;;;;;;6159223;23;20438;-81
2024/02/21 08:31:34;;;;;;;0.10;0.10;;;10.70;91.60;;;;;;6159156;23;20017;-80
2024/02/21 08:34:03;;;;;;;0.10;0.10;;;10.70;91.50;;;;;;6158976;23;20040;-81
2024/02/21 08:36:33;;;;;;;0.10;0.10;;;10.70;91.60;;;;;;6159064;23;20002;-80
2024/02/21 08:38:59;;;;;;;0.10;0.10;;;10.70;91.70;;;;;;6158980;23;20728;-81
2024/02/21 08:41:25;;;;;;;0.10;0.10;;;10.70;91.70;;;;;;6159134;23;20005;-81
2024/02/21 08:43:53;;;;;;;0.10;0.10;;;10.70;91.80;;;;;;6158891;23;20013;-81
2024/02/21 08:46:19;;;;;;;0.10;0.10;;;10.70;91.70;;;;;;6132689;23;20041;-81
2024/02/21 08:48:46;;;;;;;0.10;0.10;;;10.70;91.80;;;;;;6159889;23;20056;-81
2024/02/21 08:51:12;;;;;;;0.10;0.10;;;10.70;91.80;;;;;;6134588;23;20009;-81
2024/02/21 08:53:38;;;;;;;0.13;0.13;;;10.70;91.90;;;;;;6161220;23;20013;-80
2024/02/21 08:56:04;;;;;;;0.10;0.10;;;10.80;91.90;;;;;;6134860;23;20009;-80
2024/02/21 08:58:30;;;;;;;0.10;0.10;;;10.70;91.90;;;;;;6134482;23;20064;-81
2024/02/21 09:00:56;;;;;;;0.10;0.10;;;10.80;91.90;;;;;;6134958;23;20006;-81
2024/02/21 09:03:22;;;;;;;0.10;0.10;;;10.80;91.80;;;;;;6161458;23;20025;-80
2024/02/21 09:05:48;;;;;;;0.10;0.10;;;10.80;91.90;;;;;;6160940;23;20008;-81
2024/02/21 09:08:13;;;;;;;0.10;0.10;;;10.80;92.00;;;;;;6161601;23;20012;-80
2024/02/21 09:10:42;;;;;;;0.10;0.10;;;10.80;91.90;;;;;;6161435;23;20006;-80
2024/02/21 09:13:08;;;;;;;0.10;0.10;;;10.80;92.00;;;;;;6134703;23;20010;-80
2024/02/21 09:15:34;;;;;;;0.10;0.10;;;10.80;91.90;;;;;;6160756;23;20001;-80
2024/02/21 09:18:00;;;;;;;0.10;0.10;;;10.80;91.90;;;;;;6161383;23;20446;-80
2024/02/21 09:20:25;;;;;;;0.10;0.10;;;10.80;91.80;;;;;;6160760;23;20005;-81
2024/02/21 09:22:52;;;;;;;0.10;0.10;;;10.80;91.90;;;;;;6161377;23;20005;-81
2024/02/21 09:25:18;;;;;;;0.10;0.10;;;10.80;91.80;;;;;;6161105;23;20053;-80
2024/02/21 09:27:45;;;;;;;0.10;0.10;;;10.80;91.90;;;;;;6160944;23;20342;-80
2024/02/21 09:30:11;;;;;;;0.10;0.10;;;10.80;91.90;;;;;;6160678;23;20708;-80
2024/02/21 09:32:38;;;;;;;0.10;0.10;;;10.80;92.00;;;;;;6160296;23;20010;-80
2024/02/21 09:35:05;;;;;;;0.10;0.10;;;10.80;92.00;;;;;;6134233;23;20005;-80
2024/02/21 09:37:31;;;;;;;0.10;0.10;;;10.90;92.00;;;;;;6160935;23;20478;-80
2024/02/21 09:39:57;;;;;;;0.10;0.10;;;10.90;92.00;;;;;;6160394;23;20028;-80
2024/02/21 09:42:35;;;;;;;0.10;0.10;;;10.90;92.00;;;;;;6160697;23;20002;-80
2024/02/21 09:45:05;;;;;;;0.10;0.10;;;10.90;92.10;;;;;;6134078;23;20009;-80
2024/02/21 09:47:56;;;;;;;0.10;0.10;;;11.00;92.10;;;;;;6161013;23;20005;-81
2024/02/21 09:50:24;;;;;;;0.10;0.10;;;11.00;92.00;;;;;;6160467;23;20001;-81
2024/02/21 09:52:52;;;;;;;0.10;0.10;;;11.00;92.00;;;;;;6134197;23;20466;-80
2024/02/21 09:55:18;;;;;;;0.10;0.10;;;11.00;91.90;;;;;;6160369;23;20457;-81
2024/02/21 09:57:45;;;;;;;0.10;0.10;;;11.10;91.90;;;;;;6133974;23;20010;-80
2024/02/21 10:00:12;;;;;;;0.10;0.10;;;11.10;92.00;;;;;;6160276;23;20001;-81
2024/02/21 10:02:39;;;;;;;0.10;0.10;;;11.10;92.10;;;;;;6159738;23;20076;-80
2024/02/21 10:05:08;;;;;;;0.10;0.10;;;11.10;92.00;;;;;;6160216;23;20071;-81
2024/02/21 10:07:34;;;;;;;0.10;0.10;;;11.10;92.10;;;;;;6161098;23;20036;-81
2024/02/21 10:10:03;;;;;;;0.10;0.10;;;11.20;92.10;;;;;;6134773;23;20010;-81
2024/02/21 10:12:29;;;;;;;0.10;0.10;;;11.20;92.10;;;;;;6160444;23;20001;-81
2024/02/21 10:15:06;;;;;;;0.10;0.10;;;11.20;92.10;;;;;;6160312;23;20009;-80
2024/02/21 10:17:35;;;;;;;0.10;0.10;;;11.20;92.10;;;;;;6160350;23;20002;-80
2024/02/21 10:20:11;;;;;;;0.10;0.10;;;11.30;92.10;;;;;;6160240;23;20334;-80
2024/02/21 10:22:39;;;;;;;0.10;0.10;;;11.30;92.20;;;;;;6134270;23;20022;-81
2024/02/21 10:25:12;;;;;;;0.10;0.10;;;11.30;92.20;;;;;;6160494;23;19998;-80
2024/02/21 10:27:38;;;;;;;0.10;0.10;;;11.40;92.10;;;;;;6160562;23;20031;-81
2024/02/21 10:30:08;;;;;;;0.10;0.10;;;11.50;92.10;;;;;;6134255;23;20005;-81
2024/02/21 10:32:34;;;;;;;0.10;0.10;;;11.40;92.20;;;;;;6133514;23;20048;-81
2024/02/21 10:35:06;;;;;;;0.10;0.10;;;11.40;92.20;;;;;;6133957;23;20005;-81
2024/02/21 10:37:32;;;;;;;0.10;0.10;;;11.50;92.10;;;;;;6160137;23;20006;-81
2024/02/21 10:39:58;;;;;;;0.10;0.10;;;11.50;92.00;;;;;;6159958;23;20026;-81
2024/02/21 10:42:34;;;;;;;0.10;0.10;;;11.60;92.00;;;;;;6159556;23;20004;-80
2024/02/21 10:45:04;;;;;;;0.10;0.10;;;11.50;92.00;;;;;;6133726;23;20346;-81
2024/02/21 10:47:33;;;;;;;0.10;0.10;;;11.60;92.00;;;;;;6159791;23;20002;-81
2024/02/21 10:50:04;;;;;;;0.10;0.10;;;11.60;92.20;;;;;;6159702;23;20010;-80
2024/02/21 10:53:03;;;;;;;0.10;0.10;;;11.60;92.00;;;;;;6159012;23;20008;-79
2024/02/21 10:55:41;;;;;;;0.10;0.10;;;11.60;92.10;;;;;;6159644;23;20005;-80
2024/02/21 10:58:10;;;;;;;0.10;0.10;;;11.60;92.30;;;;;;6159744;23;20079;-80
2024/02/21 11:00:37;;;;;;;0.10;0.10;;;11.60;92.40;;;;;;6159630;23;20002;-81
2024/02/21 11:03:03;;;;;;;0.10;0.10;;;11.60;92.30;;;;;;6159500;23;20006;-81
2024/02/21 11:05:29;;;;;;;0.10;0.10;;;11.70;92.20;;;;;;6133446;23;20005;-81
2024/02/21 11:07:55;;;;;;;0.10;0.10;;;11.80;92.30;;;;;;6133343;23;20041;-81
2024/02/21 11:10:25;;;;;;;0.10;0.10;;;11.80;92.10;;;;;;6160327;23;20524;-80
2024/02/21 11:13:09;;;;;;;0.10;0.10;;;11.90;92.00;;;;;;6160058;23;20002;-81
2024/02/21 11:15:35;;;;;;;0.10;0.10;;;11.80;92.30;;;;;;6134474;23;20032;-81
2024/02/21 11:18:01;;;;;;;0.10;0.10;;;11.90;92.30;;;;;;6159548;23;20346;-80
2024/02/21 11:20:36;;;;;;;0.10;0.10;;;11.80;92.00;;;;;;6159022;23;20005;-80
2024/02/21 11:23:02;;;;;;;0.10;0.10;;;11.80;92.30;;;;;;6159735;23;19997;-81
2024/02/21 11:25:33;;;;;;;0.10;0.10;;;11.90;92.30;;;;;;6160093;23;20078;-82
2024/02/21 11:28:03;;;;;;;0.10;0.10;;;11.90;92.00;;;;;;6159557;23;20322;-81
2024/02/21 11:30:32;;;;;;;0.10;0.10;;;11.80;91.90;;;;;;6159742;23;20525;-81
2024/02/21 11:33:06;;;;;;;0.10;0.10;;;11.80;91.70;;;;;;6159894;23;20068;-81
2024/02/21 11:35:36;;;;;;;0.10;0.10;;;11.80;91.70;;;;;;6159491;23;20315;-81
2024/02/21 11:38:15;;;;;;;0.10;0.10;;;11.80;91.70;;;;;;6133044;23;20012;-81
2024/02/21 11:40:44;;;;;;;0.10;0.10;;;11.80;91.60;;;;;;6133190;23;20009;-81
2024/02/21 11:43:10;;;;;;;0.10;0.10;;;11.90;91.50;;;;;;6132802;23;20006;-81
2024/02/21 11:45:36;;;;;;;0.10;0.10;;;11.90;91.50;;;;;;6159759;23;20005;-81
2024/02/21 11:48:05;;;;;;;0.10;0.10;;;11.90;91.40;;;;;;6159287;23;20056;-81
2024/02/21 11:50:31;;;;;;;0.10;0.10;;;12.00;91.20;;;;;;6132708;23;20040;-81
2024/02/21 11:52:57;;;;;;;0.10;0.10;;;12.00;91.10;;;;;;6159376;23;20010;-80
2024/02/21 11:55:23;;;;;;;0.10;0.10;;;12.00;91.00;;;;;;6159225;23;20056;-81
2024/02/21 11:57:49;;;;;;;0.10;0.10;;;12.10;90.80;;;;;;6158759;23;20006;-81
2024/02/21 12:00:16;;;;;;;0.10;0.10;;;12.00;90.90;;;;;;6159384;23;20006;-81
2024/02/21 12:02:42;;;;;;;0.10;0.10;;;12.00;91.00;;;;;;6132690;23;20002;-81
2024/02/21 12:05:09;;;;;;;0.10;0.10;;;12.00;90.80;;;;;;6133105;23;20009;-81
2024/02/21 12:07:39;;;;;;;0.10;0.10;;;12.00;90.60;;;;;;6133476;23;20005;-81
2024/02/21 12:10:10;;;;;;;0.10;0.10;;;12.10;90.80;;;;;;6159182;23;20005;-81
2024/02/21 12:12:37;;;;;;;0.10;0.10;;;12.10;90.90;;;;;;6159477;23;20040;-81
2024/02/21 12:15:04;;;;;;;0.10;0.10;;;12.10;90.70;;;;;;6159430;23;20006;-80
2024/02/21 12:17:30;;;;;;;0.10;0.10;;;12.10;90.30;;;;;;6133279;23;20404;-81
2024/02/21 12:19:57;;;;;;;0.10;0.10;;;12.10;90.20;;;;;;6159401;23;20001;-81
2024/02/21 12:22:22;;;;;;;0.10;0.10;;;12.10;90.20;;;;;;6160097;23;19998;-81
2024/02/21 12:24:48;;;;;;;0.10;0.10;;;12.10;89.90;;;;;;6135287;23;20001;-81
2024/02/21 12:27:14;;;;;;;0.10;0.10;;;12.10;89.80;;;;;;6161031;23;20001;-81
2024/02/21 12:29:39;;;;;;;0.10;0.10;;;12.10;89.60;;;;;;6161328;23;20546;-81
2024/02/21 12:32:06;;;;;;;0.10;0.10;;;12.10;89.20;;;;;;6161292;23;20017;-79
2024/02/21 12:34:32;;;;;;;0.10;0.10;;;12.10;88.90;;;;;;6161518;23;20009;-80
2024/02/21 12:36:59;;;;;;;0.10;0.10;;;12.00;88.20;;;;;;6161111;23;20089;-80
2024/02/21 12:39:27;;;;;;;0.10;0.10;;;12.00;88.50;;;;;;6161331;23;20432;-80
2024/02/21 12:41:54;;;;;;;0.10;0.10;;;12.00;88.40;;;;;;6134711;23;20005;-81
2024/02/21 12:44:19;;;;;;;0.10;0.10;;;12.00;88.30;;;;;;6160581;23;19998;-81
2024/02/21 12:46:45;;;;;;;0.10;0.10;;;11.90;88.10;;;;;;6161058;23;20025;-81
2024/02/21 12:49:11;;;;;;;0.10;0.10;;;11.90;88.20;;;;;;6160517;23;20001;-81
2024/02/21 12:51:37;;;;;;;0.13;0.13;;;11.90;87.60;;;;;;6160958;23;20009;-81
2024/02/21 12:54:03;;;;;;;0.10;0.10;;;11.90;87.80;;;;;;6134660;23;20036;-82
2024/02/21 12:56:30;;;;;;;0.10;0.10;;;11.90;87.90;;;;;;6159854;23;20072;-80
2024/02/21 12:58:57;;;;;;;0.10;0.10;;;11.90;87.50;;;;;;6134498;23;20037;-80
2024/02/21 13:01:22;;;;;;;0.10;0.10;;;11.90;87.50;;;;;;6159840;23;20001;-80
2024/02/21 13:03:48;;;;;;;0.10;0.10;;;11.80;87.40;;;;;;6159648;23;20025;-81
2024/02/21 13:06:14;;;;;;;0.10;0.10;;;11.90;87.60;;;;;;6134497;23;20033;-80
2024/02/21 13:08:41;;;;;;;0.03;0.03;;;11.80;87.70;;;;;;6160462;23;20060;-79
2024/02/21 13:11:06;;;;;;;0.10;0.10;;;11.80;87.40;;;;;;6159557;23;20008;-80
2024/02/21 13:13:32;;;;;;;0.10;0.10;;;11.80;87.60;;;;;;6159272;23;20005;-81
2024/02/21 13:15:58;;;;;;;0.10;0.10;;;11.80;87.90;;;;;;6135138;23;20006;-79
2024/02/21 13:18:25;;;;;;;0.10;0.10;;;11.70;88.10;;;;;;6160213;23;20008;-79
2024/02/21 13:20:51;;;;;;;0.10;0.10;;;11.70;88.00;;;;;;6160622;23;20001;-79
2024/02/21 13:23:17;;;;;;;0.10;0.10;;;11.70;87.90;;;;;;6160539;23;20084;-78
2024/02/21 13:25:44;;;;;;;0.10;0.10;;;11.80;88.00;;;;;;6134676;23;20024;-79
2024/02/21 13:28:10;;;;;;;0.10;0.10;;;11.70;87.50;;;;;;6134345;23;20005;-78
2024/02/21 13:30:35;;;;;;;0.10;0.10;;;11.70;87.60;;;;;;6134631;23;20028;-79
2024/02/21 13:33:03;;;;;;;0.10;0.10;;;11.70;87.60;;;;;;6159142;23;20013;-79
2024/02/21 13:35:29;;;;;;;0.10;0.10;;;11.70;87.70;;;;;;6158343;23;20005;-79
2024/02/21 13:37:55;;;;;;;0.10;0.10;;;11.70;87.50;;;;;;6160156;23;20012;-79
2024/02/21 13:40:20;;;;;;;0.10;0.10;;;11.60;87.70;;;;;;6156402;23;20426;-80
2024/02/21 13:42:49;;;;;;;0.10;0.10;;;11.60;87.90;;;;;;6160230;23;20609;-80
2024/02/21 13:45:15;;;;;;;0.10;0.10;;;11.60;87.90;;;;;;6159927;23;20329;-79
2024/02/21 13:47:40;;;;;;;0.10;0.10;;;11.60;88.10;;;;;;6160823;23;20029;-79
2024/02/21 13:50:10;;;;;;;0.10;0.10;;;11.60;88.10;;;;;;6160570;23;20029;-80
2024/02/21 13:52:39;;;;;;;0.10;0.10;;;11.60;88.50;;;;;;6160297;23;20006;-79
2024/02/21 13:55:08;;;;;;;0.10;0.10;;;11.70;88.50;;;;;;6160644;23;20083;-79
2024/02/21 13:57:37;;;;;;;0.10;0.10;;;11.80;88.50;;;;;;6158585;23;20012;-80
2024/02/21 14:00:04;;;;;;;0.10;0.10;;;11.70;88.60;;;;;;6159969;23;20105;-80
2024/02/21 14:02:33;;;;;;;0.10;0.10;;;11.70;88.90;;;;;;6158219;23;20006;-80
2024/02/21 14:04:59;;;;;;;0.10;0.10;;;11.80;88.70;;;;;;6159419;23;20720;-80
2024/02/21 14:07:25;;;;;;;0.10;0.10;;;11.80;89.00;;;;;;6158702;23;20013;-80
2024/02/21 14:09:50;;;;;;;0.10;0.10;;;11.70;89.00;;;;;;6160262;23;20005;-80
2024/02/21 14:12:17;;;;;;;0.10;0.10;;;11.80;89.30;;;;;;6160053;23;20014;-80
2024/02/21 14:14:46;;;;;;;0.10;0.10;;;11.70;89.30;;;;;;6160097;23;20002;-80
2024/02/21 14:17:11;;;;;;;0.10;0.10;;;11.80;89.40;;;;;;6158083;23;20033;-80
2024/02/21 14:19:37;;;;;;;0.10;0.10;;;11.80;89.40;;;;;;6158856;23;20012;-79
2024/02/21 14:22:02;;;;;;;0.10;0.10;;;11.80;89.50;;;;;;6158163;23;20009;-79
2024/02/21 14:24:28;;;;;;;0.10;0.10;;;11.80;89.50;;;;;;6160158;23;20006;-79
2024/02/21 14:26:55;;;;;;;0.10;0.10;;;11.90;89.40;;;;;;6160206;23;20001;-79
2024/02/21 14:29:22;;;;;;;0.10;0.10;;;11.90;89.50;;;;;;6160132;23;20001;-79
2024/02/21 14:31:48;;;;;;;0.10;0.10;;;11.90;89.40;;;;;;6147412;23;20025;-79
2024/02/21 14:34:13;;;;;;;0.10;0.10;;;12.00;89.40;;;;;;6133662;23;20009;-79
2024/02/21 14:36:40;;;;;;;0.10;0.10;;;12.00;89.40;;;;;;6159279;23;20426;-79
2024/02/21 14:39:06;;;;;;;0.10;0.10;;;12.00;89.60;;;;;;6132963;23;20007;-79
2024/02/21 14:41:32;;;;;;;0.10;0.10;;;12.00;89.60;;;;;;6159346;23;20121;-79
2024/02/21 14:44:00;;;;;;;0.10;0.10;;;12.00;89.60;;;;;;6159224;23;20001;-78
2024/02/21 14:46:28;;;;;;;0.10;0.10;;;12.00;89.80;;;;;;6159715;23;20012;-78
2024/02/21 14:48:57;;;;;;;0.10;0.10;;;12.00;89.90;;;;;;6156845;23;20001;-79
2024/02/21 14:51:23;;;;;;;0.10;0.10;;;12.10;90.10;;;;;;6132914;23;20011;-79
2024/02/21 14:53:49;;;;;;;0.10;0.10;;;12.00;90.20;;;;;;6155558;23;20477;-79
2024/02/21 14:56:16;;;;;;;0.03;0.03;;;12.00;90.30;;;;;;6158791;23;20029;-80
2024/02/21 14:58:42;;;;;;;0.10;0.10;;;12.10;90.40;;;;;;6133207;23;20005;-79
2024/02/21 15:01:08;;;;;;;0.00;0.00;;;12.10;90.50;;;;;;6159077;23;20006;-80
2024/02/21 15:03:34;;;;;;;0.10;0.10;;;12.00;90.60;;;;;;6132877;23;20056;-79
2024/02/21 15:06:00;;;;;;;0.10;0.10;;;12.10;90.80;;;;;;6132592;23;20006;-79
2024/02/21 15:08:28;;;;;;;0.10;0.10;;;12.20;90.90;;;;;;6158858;23;20008;-80
2024/02/21 15:10:54;;;;;;;0.10;0.10;;;12.20;90.80;;;;;;6132795;23;20010;-79
2024/02/21 15:13:20;;;;;;;0.10;0.10;;;12.30;90.80;;;;;;6159300;23;20754;-80
2024/02/21 15:15:48;;;;;;;0.10;0.10;;;12.20;90.90;;;;;;6132950;23;20088;-80
2024/02/21 15:18:16;;;;;;;0.10;0.10;;;12.30;91.10;;;;;;6156064;23;20438;-77
2024/02/21 15:28:28;;;;;;;0.10;0.10;;;12.40;91.10;;;;;;6159483;23;20040;-80
2024/02/21 15:37:47;;;;;;;0.10;0.10;;;12.50;91.50;;;;;;6158774;23;20005;-79
2024/02/21 15:40:14;;;;;;;0.10;0.10;;;12.50;91.40;;;;;;6156655;23;20059;-78
2024/02/21 15:42:40;;;;;;;0.10;0.10;;;12.60;91.40;;;;;;6158369;23;20004;-78
2024/02/21 15:45:06;;;;;;;0.10;0.10;;;12.60;91.50;;;;;;6157807;23;19997;-78
2024/02/21 15:47:32;;;;;;;0.10;0.10;;;12.70;91.60;;;;;;6158457;23;20349;-83
2024/02/21 15:50:00;;;;;;;0.10;0.10;;;12.70;91.60;;;;;;6158766;23;20009;-80
2024/02/21 15:52:26;;;;;;;0.10;0.10;;;12.70;91.60;;;;;;6146940;23;20057;-80
2024/02/21 15:54:52;;;;;;;0.00;0.00;;;12.80;91.60;;;;;;6159681;23;20009;-79
2024/02/21 15:57:18;;;;;;;0.10;0.10;;;12.80;91.60;;;;;;6157753;23;20013;-80
2024/02/21 15:59:43;;;;;;;0.10;0.10;;;12.80;91.60;;;;;;6157602;23;20002;-80
2024/02/21 16:02:09;;;;;;;0.10;0.10;;;12.80;91.70;;;;;;6158015;23;20005;-79
2024/02/21 16:04:38;;;;;;;0.10;0.10;;;12.80;91.60;;;;;;6158483;23;20466;-79
2024/02/21 16:07:06;;;;;;;0.10;0.10;;;12.90;91.50;;;;;;6158581;23;20074;-79
2024/02/21 16:09:32;;;;;;;0.10;0.10;;;12.90;91.50;;;;;;6156870;23;20112;-79
2024/02/21 16:11:58;;;;;;;0.10;0.10;;;12.90;91.50;;;;;;6156764;23;20028;-79
2024/02/21 16:14:26;;;;;;;0.10;0.10;;;12.90;91.50;;;;;;6159054;23;20001;-79
2024/02/21 16:16:52;;;;;;;0.10;0.10;;;12.90;91.50;;;;;;6158564;23;20003;-79
2024/02/21 16:19:17;;;;;;;0.10;0.10;;;12.90;91.50;;;;;;6158423;23;20029;-79
2024/02/21 16:21:43;;;;;;;0.00;0.00;;;12.90;91.50;;;;;;6158073;23;20080;-79
2024/02/21 16:24:09;;;;;;;0.10;0.10;;;12.90;91.70;;;;;;6155323;23;20012;-79
2024/02/21 16:26:35;;;;;;;0.00;0.00;;;12.90;91.80;;;;;;6155863;23;20017;-78
2024/02/21 16:29:02;;;;;;;0.10;0.10;;;12.90;91.70;;;;;;6158038;23;20509;-78
2024/02/21 16:31:28;;;;;;;0.00;0.00;;;13.00;91.80;;;;;;6158317;23;20047;-79
2024/02/21 16:33:54;;;;;;;0.00;0.00;;;12.90;91.70;;;;;;6157485;23;20009;-79
2024/02/21 16:36:24;;;;;;;0.03;0.03;;;12.90;91.70;;;;;;6159142;23;20002;-78
2024/02/21 16:38:51;;;;;;;0.10;0.10;;;12.90;91.80;;;;;;6157216;23;20005;-79
2024/02/21 16:41:18;;;;;;;0.10;0.10;;;13.00;91.80;;;;;;6157225;23;20001;-79
2024/02/21 16:43:45;;;;;;;0.10;0.10;;;13.00;91.80;;;;;;6158645;23;20460;-79
2024/02/21 16:46:11;;;;;;;0.00;0.00;;;13.00;91.80;;;;;;6158305;23;20377;-78
2024/02/21 16:48:37;;;;;;;0.10;0.10;;;13.00;91.80;;;;;;6159165;23;20001;-79
2024/02/21 16:51:04;;;;;;;0.10;0.10;;;13.00;91.90;;;;;;6158668;23;20011;-78
2024/02/21 16:53:30;;;;;;;0.10;0.10;;;13.00;91.90;;;;;;6158934;23;20033;-79
2024/02/21 16:55:55;;;;;;;0.10;0.10;;;13.00;91.90;;;;;;6159030;23;20016;-78
2024/02/21 16:58:21;;;;;;;0.00;0.00;;;13.00;91.90;;;;;;6159438;23;20013;-79
2024/02/21 17:00:47;;;;;;;0.00;0.00;;;13.00;91.90;;;;;;6158386;23;20063;-79
2024/02/21 17:03:13;;;;;;;0.10;0.10;;;13.00;92.00;;;;;;6157310;23;19998;-80
2024/02/21 17:05:39;;;;;;;0.00;0.00;;;13.00;92.00;;;;;;6159178;23;20008;-79
2024/02/21 17:08:07;;;;;;;0.10;0.10;;;13.00;92.10;;;;;;6158891;23;20002;-78
2024/02/21 17:10:33;;;;;;;0.10;0.10;;;13.00;92.20;;;;;;6159054;23;20005;-81
2024/02/21 17:12:58;;;;;;;0.10;0.10;;;12.90;92.20;;;;;;6159170;23;20009;-79
2024/02/21 17:15:24;;;;;;;0.10;0.10;;;12.90;92.20;;;;;;6158558;23;20011;-79
2024/02/21 17:17:52;;;;;;;0.00;0.00;;;12.90;92.30;;;;;;6150723;23;20111;-78
2024/02/21 17:20:17;;;;;;;0.10;0.10;;;12.90;92.40;;;;;;6156881;23;20017;-78
2024/02/21 17:22:43;;;;;;;0.10;0.10;;;13.00;92.40;;;;;;6157872;23;20430;-77
2024/02/21 17:25:10;;;;;;;0.10;0.10;;;12.90;92.40;;;;;;6157441;23;20312;-80
2024/02/21 17:27:37;;;;;;;0.08;0.08;;;13.00;92.40;;;;;;6146181;23;20005;-79
2024/02/21 17:30:04;;;;;;;0.08;0.08;;;13.00;92.30;;;;;;6155319;23;20088;-79
2024/02/21 17:32:30;;;;;;;0.00;0.00;;;13.00;92.40;;;;;;6157403;23;20029;-78
2024/02/21 17:34:55;;;;;;;0.10;0.10;;;13.00;92.40;;;;;;6152945;23;20044;-79
2024/02/21 17:37:21;;;;;;;0.00;0.00;;;13.00;92.40;;;;;;6158008;23;20013;-79
2024/02/21 17:39:46;;;;;;;0.10;0.10;;;13.00;92.40;;;;;;6157600;23;19997;-79
2024/02/21 17:42:12;;;;;;;0.10;0.10;;;13.00;92.40;;;;;;6157811;23;20001;-79
2024/02/21 17:44:50;;;;;;;0.10;0.10;;;13.00;92.40;;;;;;6154039;23;20056;-79
2024/02/21 17:47:18;;;;;;;0.10;0.10;;;13.00;92.40;;;;;;6155712;23;20012;-79
2024/02/21 17:49:53;;;;;;;0.10;0.10;;;13.10;92.40;;;;;;6154957;23;20002;-79
2024/02/21 17:52:20;;;;;;;0.10;0.10;;;13.00;92.30;;;;;;6155922;23;20609;-80
2024/02/21 17:54:47;;;;;;;0.10;0.10;;;13.00;92.40;;;;;;6154754;23;20438;-80
2024/02/21 17:57:16;;;;;;;0.10;0.10;;;13.00;92.40;;;;;;6156141;23;20084;-79
2024/02/21 17:59:42;;;;;;;0.10;0.10;;;13.00;92.40;;;;;;6158108;23;20584;-79
2024/02/21 18:02:09;;;;;;;0.00;0.00;;;13.00;92.40;;;;;;6156377;23;20104;-77
2024/02/21 18:04:39;;;;;;;0.10;0.10;;;13.00;92.40;;;;;;6157553;23;20341;-77
2024/02/21 18:07:04;;;;;;;0.00;0.00;;;13.00;92.60;;;;;;6156643;23;20084;-78
2024/02/21 18:09:30;;;;;;;0.10;0.10;;;13.00;92.50;;;;;;6158882;23;20002;-78
2024/02/21 18:11:58;;;;;;;0.10;0.10;;;12.90;92.60;;;;;;6158534;23;20014;-77
2024/02/21 18:14:23;;;;;;;0.10;0.10;;;12.90;92.70;;;;;;6158040;23;20002;-78
2024/02/21 18:16:49;;;;;;;0.10;0.10;;;12.90;92.80;;;;;;6157174;23;20025;-77
2024/02/21 18:19:15;;;;;;;0.10;0.10;;;12.90;92.80;;;;;;6158307;23;20013;-77
2024/02/21 18:21:40;;;;;;;0.10;0.10;;;12.90;92.90;;;;;;6155599;23;20009;-78
2024/02/21 18:24:06;;;;;;;0.00;0.00;;;12.90;92.80;;;;;;6156589;23;20002;-78
2024/02/21 18:26:32;;;;;;;0.00;0.00;;;12.90;92.80;;;;;;6158005;23;20005;-77
2024/02/21 18:28:59;;;;;;;0.10;0.10;;;12.90;92.90;;;;;;6157825;23;20077;-77
2024/02/21 18:31:27;;;;;;;0.10;0.10;;;13.00;92.80;;;;;;6156209;23;20466;-77